sensor_id;sensor_type;location;lat;lon;timestamp;P1;durP1;ratioP1;P2;durP2;ratioP2
22502;SDS011;11418;48.118;9.992;2023-07-20T00:03:12;6.85;;;1.95;;
22502;SDS011;11418;48.118;9.992;2023-07-20T00:07:16;9.65;;;2.70;;
22502;SDS011;11418;48.118;9.992;2023-07-20T00:11:17;4.00;;;1.77;;
22502;SDS011;11418;48.118;9.992;2023-07-20T00:15:17;3.90;;;1.70;;
22502;SDS011;11418;48.118;9.992;2023-07-20T00:19:18;4.65;;;1.75;;
22502;SDS011;11418;48.118;9.992;2023-07-20T00:23:18;4.93;;;1.50;;
22502;SDS011;11418;48.118;9.992;2023-07-20T00:27:22;3.33;;;1.50;;
22502;SDS011;11418;48.118;9.992;2023-07-20T00:31:23;6.57;;;1.60;;
22502;SDS011;11418;48.118;9.992;2023-07-20T00:35:23;2.22;;;1.13;;
22502;SDS011;11418;48.118;9.992;2023-07-20T00:39:24;2.65;;;1.50;;
22502;SDS011;11418;48.118;9.992;2023-07-20T00:43:24;2.05;;;1.13;;
22502;SDS011;11418;48.118;9.992;2023-07-20T00:47:25;7.47;;;1.33;;
22502;SDS011;11418;48.118;9.992;2023-07-20T00:51:27;3.88;;;1.73;;
22502;SDS011;11418;48.118;9.992;2023-07-20T00:55:27;4.65;;;1.23;;
22502;SDS011;11418;48.118;9.992;2023-07-20T00:59:29;5.03;;;1.38;;
22502;SDS011;11418;48.118;9.992;2023-07-20T01:03:29;2.15;;;1.40;;
22502;SDS011;11418;48.118;9.992;2023-07-20T01:07:41;3.13;;;1.50;;
22502;SDS011;11418;48.118;9.992;2023-07-20T01:12:12;1.85;;;1.35;;
22502;SDS011;11418;48.118;9.992;2023-07-20T01:16:26;2.28;;;1.27;;
22502;SDS011;11418;48.118;9.992;2023-07-20T01:20:27;3.25;;;1.60;;
22502;SDS011;11418;48.118;9.992;2023-07-20T01:33:05;3.22;;;1.70;;
22502;SDS011;11418;48.118;9.992;2023-07-20T01:37:07;1.75;;;1.40;;
22502;SDS011;11418;48.118;9.992;2023-07-20T01:41:09;6.65;;;1.90;;
22502;SDS011;11418;48.118;9.992;2023-07-20T01:45:10;3.90;;;1.95;;
22502;SDS011;11418;48.118;9.992;2023-07-20T01:49:11;3.75;;;2.08;;
22502;SDS011;11418;48.118;9.992;2023-07-20T01:53:12;5.78;;;2.20;;
22502;SDS011;11418;48.118;9.992;2023-07-20T01:57:12;5.07;;;2.35;;
22502;SDS011;11418;48.118;9.992;2023-07-20T02:01:13;4.00;;;2.15;;
22502;SDS011;11418;48.118;9.992;2023-07-20T02:05:13;4.22;;;2.20;;
22502;SDS011;11418;48.118;9.992;2023-07-20T02:09:14;4.78;;;2.00;;
22502;SDS011;11418;48.118;9.992;2023-07-20T02:13:15;3.55;;;2.00;;
22502;SDS011;11418;48.118;9.992;2023-07-20T02:17:15;5.32;;;2.47;;
22502;SDS011;11418;48.118;9.992;2023-07-20T02:21:16;8.07;;;2.22;;
22502;SDS011;11418;48.118;9.992;2023-07-20T02:25:16;4.88;;;1.85;;
22502;SDS011;11418;48.118;9.992;2023-07-20T02:29:17;3.45;;;2.10;;
22502;SDS011;11418;48.118;9.992;2023-07-20T02:33:17;3.30;;;1.90;;
22502;SDS011;11418;48.118;9.992;2023-07-20T02:37:18;4.40;;;2.00;;
22502;SDS011;11418;48.118;9.992;2023-07-20T02:41:18;3.00;;;1.92;;
22502;SDS011;11418;48.118;9.992;2023-07-20T02:45:19;5.78;;;2.60;;
22502;SDS011;11418;48.118;9.992;2023-07-20T02:49:19;3.00;;;2.00;;
22502;SDS011;11418;48.118;9.992;2023-07-20T02:53:20;4.63;;;2.03;;
22502;SDS011;11418;48.118;9.992;2023-07-20T02:57:21;3.17;;;2.20;;
22502;SDS011;11418;48.118;9.992;2023-07-20T03:01:21;6.80;;;2.22;;
22502;SDS011;11418;48.118;9.992;2023-07-20T03:05:22;6.75;;;2.20;;
22502;SDS011;11418;48.118;9.992;2023-07-20T03:09:27;5.75;;;2.30;;
22502;SDS011;11418;48.118;9.992;2023-07-20T03:13:29;4.85;;;2.47;;
22502;SDS011;11418;48.118;9.992;2023-07-20T03:17:30;5.30;;;2.45;;
22502;SDS011;11418;48.118;9.992;2023-07-20T03:21:30;3.70;;;2.03;;
22502;SDS011;11418;48.118;9.992;2023-07-20T03:25:31;3.45;;;2.33;;
22502;SDS011;11418;48.118;9.992;2023-07-20T03:29:32;2.83;;;1.92;;
22502;SDS011;11418;48.118;9.992;2023-07-20T03:33:33;5.07;;;2.58;;
22502;SDS011;11418;48.118;9.992;2023-07-20T03:37:34;5.68;;;2.40;;
22502;SDS011;11418;48.118;9.992;2023-07-20T03:41:36;3.38;;;2.45;;
22502;SDS011;11418;48.118;9.992;2023-07-20T03:45:37;5.32;;;2.50;;
22502;SDS011;11418;48.118;9.992;2023-07-20T03:49:37;7.55;;;2.22;;
22502;SDS011;11418;48.118;9.992;2023-07-20T03:53:38;4.65;;;2.42;;
22502;SDS011;11418;48.118;9.992;2023-07-20T03:57:38;3.25;;;2.30;;
22502;SDS011;11418;48.118;9.992;2023-07-20T04:01:39;3.83;;;2.67;;
22502;SDS011;11418;48.118;9.992;2023-07-20T04:05:40;7.97;;;2.72;;
22502;SDS011;11418;48.118;9.992;2023-07-20T04:09:40;3.08;;;2.30;;
22502;SDS011;11418;48.118;9.992;2023-07-20T04:13:41;6.18;;;2.70;;
22502;SDS011;11418;48.118;9.992;2023-07-20T04:17:42;5.57;;;2.40;;
22502;SDS011;11418;48.118;9.992;2023-07-20T04:21:42;3.08;;;2.42;;
22502;SDS011;11418;48.118;9.992;2023-07-20T04:25:43;5.05;;;2.72;;
22502;SDS011;11418;48.118;9.992;2023-07-20T04:29:44;6.47;;;2.70;;
22502;SDS011;11418;48.118;9.992;2023-07-20T04:33:44;3.60;;;2.58;;
22502;SDS011;11418;48.118;9.992;2023-07-20T04:37:45;6.72;;;2.80;;
22502;SDS011;11418;48.118;9.992;2023-07-20T04:41:46;3.05;;;2.33;;
22502;SDS011;11418;48.118;9.992;2023-07-20T04:45:46;7.85;;;2.83;;
22502;SDS011;11418;48.118;9.992;2023-07-20T04:49:47;2.72;;;2.40;;
22502;SDS011;11418;48.118;9.992;2023-07-20T04:53:48;4.60;;;2.40;;
22502;SDS011;11418;48.118;9.992;2023-07-20T04:57:49;4.00;;;2.25;;
22502;SDS011;11418;48.118;9.992;2023-07-20T05:01:49;4.40;;;2.42;;
22502;SDS011;11418;48.118;9.992;2023-07-20T05:05:50;6.22;;;2.47;;
22502;SDS011;11418;48.118;9.992;2023-07-20T05:09:50;6.28;;;2.30;;
22502;SDS011;11418;48.118;9.992;2023-07-20T05:13:51;6.22;;;2.67;;
22502;SDS011;11418;48.118;9.992;2023-07-20T05:17:51;4.78;;;2.60;;
22502;SDS011;11418;48.118;9.992;2023-07-20T05:21:52;8.93;;;2.50;;
22502;SDS011;11418;48.118;9.992;2023-07-20T05:25:56;4.10;;;2.78;;
22502;SDS011;11418;48.118;9.992;2023-07-20T05:29:58;4.85;;;2.70;;
22502;SDS011;11418;48.118;9.992;2023-07-20T05:33:58;4.32;;;2.47;;
22502;SDS011;11418;48.118;9.992;2023-07-20T05:37:59;4.60;;;2.65;;
22502;SDS011;11418;48.118;9.992;2023-07-20T05:41:59;6.13;;;2.60;;
22502;SDS011;11418;48.118;9.992;2023-07-20T05:46:00;3.95;;;2.45;;
22502;SDS011;11418;48.118;9.992;2023-07-20T05:50:00;5.93;;;2.78;;
22502;SDS011;11418;48.118;9.992;2023-07-20T05:54:01;3.47;;;2.28;;
22502;SDS011;11418;48.118;9.992;2023-07-20T05:58:02;4.00;;;2.33;;
22502;SDS011;11418;48.118;9.992;2023-07-20T06:02:04;5.63;;;2.35;;
22502;SDS011;11418;48.118;9.992;2023-07-20T06:06:04;5.10;;;2.25;;
22502;SDS011;11418;48.118;9.992;2023-07-20T06:10:06;5.25;;;2.33;;
22502;SDS011;11418;48.118;9.992;2023-07-20T06:14:07;5.72;;;2.65;;
22502;SDS011;11418;48.118;9.992;2023-07-20T06:18:07;3.78;;;2.22;;
22502;SDS011;11418;48.118;9.992;2023-07-20T06:22:08;10.90;;;2.20;;
22502;SDS011;11418;48.118;9.992;2023-07-20T06:26:09;5.30;;;2.10;;
22502;SDS011;11418;48.118;9.992;2023-07-20T06:30:09;5.60;;;2.35;;
22502;SDS011;11418;48.118;9.992;2023-07-20T06:34:10;3.33;;;2.00;;
22502;SDS011;11418;48.118;9.992;2023-07-20T06:38:11;5.15;;;2.08;;
22502;SDS011;11418;48.118;9.992;2023-07-20T06:42:11;4.57;;;2.28;;
22502;SDS011;11418;48.118;9.992;2023-07-20T06:46:12;6.07;;;2.13;;
22502;SDS011;11418;48.118;9.992;2023-07-20T06:50:12;5.25;;;2.30;;
22502;SDS011;11418;48.118;9.992;2023-07-20T06:54:13;4.20;;;1.73;;
22502;SDS011;11418;48.118;9.992;2023-07-20T06:58:14;2.38;;;1.70;;
22502;SDS011;11418;48.118;9.992;2023-07-20T07:02:14;4.90;;;1.90;;
22502;SDS011;11418;48.118;9.992;2023-07-20T07:06:15;5.63;;;1.88;;
22502;SDS011;11418;48.118;9.992;2023-07-20T07:10:16;3.28;;;2.00;;
22502;SDS011;11418;48.118;9.992;2023-07-20T07:14:16;5.93;;;2.20;;
22502;SDS011;11418;48.118;9.992;2023-07-20T07:18:17;4.95;;;2.08;;
22502;SDS011;11418;48.118;9.992;2023-07-20T07:22:20;7.78;;;1.95;;
22502;SDS011;11418;48.118;9.992;2023-07-20T07:26:24;2.83;;;1.60;;
22502;SDS011;11418;48.118;9.992;2023-07-20T07:30:24;3.47;;;1.80;;
22502;SDS011;11418;48.118;9.992;2023-07-20T07:34:25;6.25;;;2.15;;
22502;SDS011;11418;48.118;9.992;2023-07-20T07:38:26;4.10;;;1.70;;
22502;SDS011;11418;48.118;9.992;2023-07-20T07:42:28;2.45;;;1.70;;
22502;SDS011;11418;48.118;9.992;2023-07-20T07:46:29;3.17;;;1.92;;
22502;SDS011;11418;48.118;9.992;2023-07-20T07:50:29;3.20;;;1.90;;
22502;SDS011;11418;48.118;9.992;2023-07-20T07:54:30;4.47;;;2.05;;
22502;SDS011;11418;48.118;9.992;2023-07-20T07:58:30;3.17;;;1.83;;
22502;SDS011;11418;48.118;9.992;2023-07-20T08:02:31;5.28;;;2.42;;
22502;SDS011;11418;48.118;9.992;2023-07-20T08:06:31;4.60;;;1.98;;
22502;SDS011;11418;48.118;9.992;2023-07-20T08:10:32;2.95;;;1.70;;
22502;SDS011;11418;48.118;9.992;2023-07-20T08:14:33;2.78;;;1.70;;
22502;SDS011;11418;48.118;9.992;2023-07-20T08:18:33;4.22;;;2.22;;
22502;SDS011;11418;48.118;9.992;2023-07-20T08:22:34;2.42;;;1.70;;
22502;SDS011;11418;48.118;9.992;2023-07-20T08:26:34;3.20;;;2.03;;
22502;SDS011;11418;48.118;9.992;2023-07-20T08:30:45;3.40;;;1.70;;
22502;SDS011;11418;48.118;9.992;2023-07-20T08:34:46;4.15;;;1.73;;
22502;SDS011;11418;48.118;9.992;2023-07-20T08:38:47;4.78;;;1.83;;
22502;SDS011;11418;48.118;9.992;2023-07-20T08:42:48;3.13;;;1.60;;
22502;SDS011;11418;48.118;9.992;2023-07-20T08:46:50;3.35;;;1.75;;
22502;SDS011;11418;48.118;9.992;2023-07-20T08:50:52;4.95;;;1.77;;
22502;SDS011;11418;48.118;9.992;2023-07-20T08:54:53;3.33;;;1.77;;
22502;SDS011;11418;48.118;9.992;2023-07-20T08:58:54;2.45;;;1.50;;
22502;SDS011;11418;48.118;9.992;2023-07-20T09:02:55;4.10;;;1.90;;
22502;SDS011;11418;48.118;9.992;2023-07-20T09:06:57;3.80;;;1.63;;
22502;SDS011;11418;48.118;9.992;2023-07-20T09:10:58;4.13;;;1.95;;
22502;SDS011;11418;48.118;9.992;2023-07-20T09:14:59;3.35;;;1.27;;
22502;SDS011;11418;48.118;9.992;2023-07-20T09:18:59;5.18;;;2.00;;
22502;SDS011;11418;48.118;9.992;2023-07-20T09:23:00;2.13;;;1.60;;
22502;SDS011;11418;48.118;9.992;2023-07-20T09:27:05;3.38;;;1.58;;
22502;SDS011;11418;48.118;9.992;2023-07-20T09:31:14;4.50;;;1.90;;
22502;SDS011;11418;48.118;9.992;2023-07-20T09:35:20;4.70;;;1.95;;
22502;SDS011;11418;48.118;9.992;2023-07-20T09:39:22;5.70;;;2.28;;
22502;SDS011;11418;48.118;9.992;2023-07-20T09:43:22;7.72;;;2.53;;
22502;SDS011;11418;48.118;9.992;2023-07-20T09:47:23;4.22;;;2.08;;
22502;SDS011;11418;48.118;9.992;2023-07-20T09:51:24;3.83;;;1.98;;
22502;SDS011;11418;48.118;9.992;2023-07-20T09:55:25;2.47;;;1.77;;
22502;SDS011;11418;48.118;9.992;2023-07-20T09:59:26;4.97;;;1.88;;
22502;SDS011;11418;48.118;9.992;2023-07-20T10:03:28;3.08;;;1.65;;
22502;SDS011;11418;48.118;9.992;2023-07-20T10:07:30;2.97;;;1.90;;
22502;SDS011;11418;48.118;9.992;2023-07-20T10:11:31;4.93;;;1.65;;
22502;SDS011;11418;48.118;9.992;2023-07-20T10:15:37;5.95;;;1.73;;
22502;SDS011;11418;48.118;9.992;2023-07-20T10:19:43;4.70;;;1.92;;
22502;SDS011;11418;48.118;9.992;2023-07-20T10:23:47;2.78;;;1.50;;
22502;SDS011;11418;48.118;9.992;2023-07-20T10:27:48;3.05;;;1.80;;
22502;SDS011;11418;48.118;9.992;2023-07-20T10:31:49;2.63;;;1.50;;
22502;SDS011;11418;48.118;9.992;2023-07-20T10:35:53;3.65;;;1.90;;
22502;SDS011;11418;48.118;9.992;2023-07-20T10:40:11;2.03;;;1.70;;
22502;SDS011;11418;48.118;9.992;2023-07-20T10:44:23;2.42;;;1.67;;
22502;SDS011;11418;48.118;9.992;2023-07-20T10:48:24;2.13;;;1.50;;
22502;SDS011;11418;48.118;9.992;2023-07-20T10:52:25;4.25;;;1.85;;
22502;SDS011;11418;48.118;9.992;2023-07-20T10:56:26;4.18;;;2.17;;
22502;SDS011;11418;48.118;9.992;2023-07-20T11:00:30;5.45;;;1.90;;
22502;SDS011;11418;48.118;9.992;2023-07-20T11:04:40;4.03;;;1.90;;
22502;SDS011;11418;48.118;9.992;2023-07-20T11:08:42;2.10;;;1.60;;
22502;SDS011;11418;48.118;9.992;2023-07-20T11:12:52;3.38;;;1.88;;
22502;SDS011;11418;48.118;9.992;2023-07-20T11:17:29;4.68;;;1.80;;
22502;SDS011;11418;48.118;9.992;2023-07-20T11:21:37;4.90;;;2.13;;
22502;SDS011;11418;48.118;9.992;2023-07-20T11:25:39;3.70;;;1.80;;
22502;SDS011;11418;48.118;9.992;2023-07-20T11:29:40;2.78;;;1.70;;
22502;SDS011;11418;48.118;9.992;2023-07-20T11:33:41;4.22;;;2.50;;
22502;SDS011;11418;48.118;9.992;2023-07-20T11:37:41;3.88;;;2.17;;
22502;SDS011;11418;48.118;9.992;2023-07-20T11:41:49;4.32;;;2.28;;
22502;SDS011;11418;48.118;9.992;2023-07-20T11:45:54;3.15;;;2.30;;
22502;SDS011;11418;48.118;9.992;2023-07-20T11:49:55;3.17;;;2.00;;
22502;SDS011;11418;48.118;9.992;2023-07-20T11:54:03;2.83;;;1.90;;
22502;SDS011;11418;48.118;9.992;2023-07-20T11:58:07;5.57;;;1.80;;
22502;SDS011;11418;48.118;9.992;2023-07-20T12:02:09;3.10;;;1.90;;
22502;SDS011;11418;48.118;9.992;2023-07-20T12:06:10;4.35;;;2.15;;
22502;SDS011;11418;48.118;9.992;2023-07-20T12:10:11;2.20;;;1.92;;
22502;SDS011;11418;48.118;9.992;2023-07-20T12:14:12;4.57;;;2.00;;
22502;SDS011;11418;48.118;9.992;2023-07-20T12:18:12;4.20;;;1.88;;
22502;SDS011;11418;48.118;9.992;2023-07-20T12:22:13;3.35;;;1.90;;
22502;SDS011;11418;48.118;9.992;2023-07-20T12:26:13;2.20;;;2.00;;
22502;SDS011;11418;48.118;9.992;2023-07-20T12:30:15;3.05;;;1.80;;
22502;SDS011;11418;48.118;9.992;2023-07-20T12:34:15;3.53;;;2.30;;
22502;SDS011;11418;48.118;9.992;2023-07-20T12:38:16;4.13;;;1.98;;
22502;SDS011;11418;48.118;9.992;2023-07-20T12:42:17;6.65;;;2.10;;
22502;SDS011;11418;48.118;9.992;2023-07-20T12:46:17;3.45;;;1.95;;
22502;SDS011;11418;48.118;9.992;2023-07-20T12:50:18;4.13;;;1.98;;
22502;SDS011;11418;48.118;9.992;2023-07-20T12:54:18;1.90;;;1.58;;
22502;SDS011;11418;48.118;9.992;2023-07-20T12:58:19;2.85;;;1.60;;
22502;SDS011;11418;48.118;9.992;2023-07-20T13:02:19;4.63;;;1.92;;
22502;SDS011;11418;48.118;9.992;2023-07-20T13:06:20;2.15;;;1.80;;
22502;SDS011;11418;48.118;9.992;2023-07-20T13:10:21;3.17;;;2.03;;
22502;SDS011;11418;48.118;9.992;2023-07-20T13:14:22;4.00;;;2.22;;
22502;SDS011;11418;48.118;9.992;2023-07-20T13:18:22;3.47;;;2.13;;
22502;SDS011;11418;48.118;9.992;2023-07-20T13:22:23;11.88;;;2.20;;
22502;SDS011;11418;48.118;9.992;2023-07-20T13:26:23;3.90;;;1.70;;
22502;SDS011;11418;48.118;9.992;2023-07-20T13:30:24;7.28;;;2.10;;
22502;SDS011;11418;48.118;9.992;2023-07-20T13:34:25;7.82;;;1.75;;
22502;SDS011;11418;48.118;9.992;2023-07-20T13:38:26;3.28;;;1.80;;
22502;SDS011;11418;48.118;9.992;2023-07-20T13:42:27;4.70;;;1.75;;
22502;SDS011;11418;48.118;9.992;2023-07-20T13:46:27;6.53;;;2.40;;
22502;SDS011;11418;48.118;9.992;2023-07-20T13:50:28;2.97;;;1.90;;
22502;SDS011;11418;48.118;9.992;2023-07-20T13:54:28;5.80;;;1.92;;
22502;SDS011;11418;48.118;9.992;2023-07-20T13:58:29;5.32;;;1.83;;
22502;SDS011;11418;48.118;9.992;2023-07-20T14:02:29;3.67;;;2.00;;
22502;SDS011;11418;48.118;9.992;2023-07-20T14:06:31;3.70;;;1.90;;
22502;SDS011;11418;48.118;9.992;2023-07-20T14:10:32;2.95;;;1.95;;
22502;SDS011;11418;48.118;9.992;2023-07-20T14:14:32;3.10;;;1.90;;
22502;SDS011;11418;48.118;9.992;2023-07-20T14:18:33;2.78;;;2.08;;
22502;SDS011;11418;48.118;9.992;2023-07-20T14:22:34;3.05;;;1.92;;
22502;SDS011;11418;48.118;9.992;2023-07-20T14:26:34;2.42;;;2.00;;
22502;SDS011;11418;48.118;9.992;2023-07-20T14:30:35;10.68;;;2.92;;
22502;SDS011;11418;48.118;9.992;2023-07-20T14:34:36;2.83;;;1.95;;
22502;SDS011;11418;48.118;9.992;2023-07-20T14:38:36;3.33;;;1.60;;
22502;SDS011;11418;48.118;9.992;2023-07-20T14:42:37;6.72;;;2.25;;
22502;SDS011;11418;48.118;9.992;2023-07-20T14:46:38;3.92;;;2.03;;
22502;SDS011;11418;48.118;9.992;2023-07-20T14:50:38;2.40;;;2.15;;
22502;SDS011;11418;48.118;9.992;2023-07-20T14:54:39;3.70;;;1.85;;
22502;SDS011;11418;48.118;9.992;2023-07-20T14:58:39;2.80;;;1.80;;
22502;SDS011;11418;48.118;9.992;2023-07-20T15:02:40;2.90;;;1.80;;
22502;SDS011;11418;48.118;9.992;2023-07-20T15:06:41;3.00;;;2.03;;
22502;SDS011;11418;48.118;9.992;2023-07-20T15:10:41;2.75;;;1.95;;
22502;SDS011;11418;48.118;9.992;2023-07-20T15:14:43;3.00;;;1.95;;
22502;SDS011;11418;48.118;9.992;2023-07-20T15:18:47;3.85;;;1.80;;
22502;SDS011;11418;48.118;9.992;2023-07-20T15:22:47;2.60;;;1.80;;
22502;SDS011;11418;48.118;9.992;2023-07-20T15:26:48;3.42;;;1.90;;
22502;SDS011;11418;48.118;9.992;2023-07-20T15:30:48;3.15;;;2.00;;
22502;SDS011;11418;48.118;9.992;2023-07-20T15:34:49;3.60;;;1.90;;
22502;SDS011;11418;48.118;9.992;2023-07-20T15:38:50;3.30;;;1.65;;
22502;SDS011;11418;48.118;9.992;2023-07-20T15:42:50;3.53;;;2.10;;
22502;SDS011;11418;48.118;9.992;2023-07-20T15:46:51;2.65;;;2.00;;
22502;SDS011;11418;48.118;9.992;2023-07-20T15:50:52;4.90;;;2.08;;
22502;SDS011;11418;48.118;9.992;2023-07-20T15:54:52;3.47;;;1.90;;
22502;SDS011;11418;48.118;9.992;2023-07-20T15:58:53;5.50;;;1.80;;
22502;SDS011;11418;48.118;9.992;2023-07-20T16:02:53;3.47;;;1.90;;
22502;SDS011;11418;48.118;9.992;2023-07-20T16:06:56;3.20;;;1.70;;
22502;SDS011;11418;48.118;9.992;2023-07-20T16:10:56;3.63;;;1.73;;
22502;SDS011;11418;48.118;9.992;2023-07-20T16:14:57;3.20;;;2.08;;
22502;SDS011;11418;48.118;9.992;2023-07-20T16:18:58;3.05;;;2.00;;
22502;SDS011;11418;48.118;9.992;2023-07-20T16:22:58;3.92;;;2.15;;
22502;SDS011;11418;48.118;9.992;2023-07-20T16:26:59;4.25;;;1.67;;
22502;SDS011;11418;48.118;9.992;2023-07-20T16:30:59;3.25;;;2.08;;
22502;SDS011;11418;48.118;9.992;2023-07-20T16:35:00;2.78;;;1.77;;
22502;SDS011;11418;48.118;9.992;2023-07-20T16:39:01;11.23;;;2.17;;
22502;SDS011;11418;48.118;9.992;2023-07-20T16:43:03;4.78;;;1.85;;
22502;SDS011;11418;48.118;9.992;2023-07-20T16:47:04;5.63;;;1.92;;
22502;SDS011;11418;48.118;9.992;2023-07-20T16:51:05;2.67;;;1.70;;
22502;SDS011;11418;48.118;9.992;2023-07-20T16:55:05;3.50;;;1.77;;
22502;SDS011;11418;48.118;9.992;2023-07-20T16:59:06;3.08;;;1.90;;
22502;SDS011;11418;48.118;9.992;2023-07-20T17:03:07;2.47;;;1.95;;
22502;SDS011;11418;48.118;9.992;2023-07-20T17:07:08;4.47;;;3.20;;
22502;SDS011;11418;48.118;9.992;2023-07-20T17:11:08;5.65;;;1.85;;
22502;SDS011;11418;48.118;9.992;2023-07-20T17:15:09;6.65;;;2.10;;
22502;SDS011;11418;48.118;9.992;2023-07-20T17:19:10;2.90;;;2.05;;
22502;SDS011;11418;48.118;9.992;2023-07-20T17:23:10;3.05;;;1.98;;
22502;SDS011;11418;48.118;9.992;2023-07-20T17:27:11;2.33;;;1.88;;
22502;SDS011;11418;48.118;9.992;2023-07-20T17:31:12;2.10;;;1.90;;
22502;SDS011;11418;48.118;9.992;2023-07-20T17:35:12;2.20;;;1.92;;
22502;SDS011;11418;48.118;9.992;2023-07-20T17:39:13;8.50;;;2.47;;
22502;SDS011;11418;48.118;9.992;2023-07-20T17:43:13;3.03;;;2.15;;
22502;SDS011;11418;48.118;9.992;2023-07-20T17:47:15;2.70;;;1.70;;
22502;SDS011;11418;48.118;9.992;2023-07-20T17:51:15;3.25;;;2.17;;
22502;SDS011;11418;48.118;9.992;2023-07-20T17:55:16;4.32;;;1.90;;
22502;SDS011;11418;48.118;9.992;2023-07-20T17:59:17;3.17;;;1.83;;
22502;SDS011;11418;48.118;9.992;2023-07-20T18:03:17;3.35;;;2.22;;
22502;SDS011;11418;48.118;9.992;2023-07-20T18:07:18;3.75;;;2.00;;
22502;SDS011;11418;48.118;9.992;2023-07-20T18:11:18;3.65;;;1.92;;
22502;SDS011;11418;48.118;9.992;2023-07-20T18:15:19;3.90;;;2.13;;
22502;SDS011;11418;48.118;9.992;2023-07-20T18:19:19;2.35;;;2.00;;
22502;SDS011;11418;48.118;9.992;2023-07-20T18:23:20;3.25;;;2.05;;
22502;SDS011;11418;48.118;9.992;2023-07-20T18:27:21;4.15;;;2.10;;
22502;SDS011;11418;48.118;9.992;2023-07-20T18:31:21;12.48;;;2.05;;
22502;SDS011;11418;48.118;9.992;2023-07-20T18:35:22;3.53;;;2.25;;
22502;SDS011;11418;48.118;9.992;2023-07-20T18:39:22;2.60;;;2.20;;
22502;SDS011;11418;48.118;9.992;2023-07-20T18:43:23;3.42;;;2.45;;
22502;SDS011;11418;48.118;9.992;2023-07-20T18:47:23;4.47;;;2.00;;
22502;SDS011;11418;48.118;9.992;2023-07-20T18:51:24;4.65;;;2.30;;
22502;SDS011;11418;48.118;9.992;2023-07-20T18:55:24;4.05;;;2.10;;
22502;SDS011;11418;48.118;9.992;2023-07-20T18:59:26;6.07;;;2.60;;
22502;SDS011;11418;48.118;9.992;2023-07-20T19:03:26;7.10;;;2.33;;
22502;SDS011;11418;48.118;9.992;2023-07-20T19:07:27;5.30;;;2.60;;
22502;SDS011;11418;48.118;9.992;2023-07-20T19:11:27;2.70;;;2.00;;
22502;SDS011;11418;48.118;9.992;2023-07-20T19:15:28;5.10;;;2.40;;
22502;SDS011;11418;48.118;9.992;2023-07-20T19:19:28;7.68;;;2.33;;
22502;SDS011;11418;48.118;9.992;2023-07-20T19:23:31;3.13;;;1.90;;
22502;SDS011;11418;48.118;9.992;2023-07-20T19:27:32;4.32;;;2.10;;
22502;SDS011;11418;48.118;9.992;2023-07-20T19:31:33;3.85;;;2.47;;
22502;SDS011;11418;48.118;9.992;2023-07-20T19:35:34;3.15;;;2.33;;
22502;SDS011;11418;48.118;9.992;2023-07-20T19:39:36;5.10;;;2.28;;
22502;SDS011;11418;48.118;9.992;2023-07-20T19:43:36;3.55;;;2.00;;
22502;SDS011;11418;48.118;9.992;2023-07-20T19:47:37;3.80;;;2.28;;
22502;SDS011;11418;48.118;9.992;2023-07-20T19:51:37;3.50;;;2.20;;
22502;SDS011;11418;48.118;9.992;2023-07-20T19:55:38;3.50;;;2.17;;
22502;SDS011;11418;48.118;9.992;2023-07-20T19:59:38;2.70;;;1.85;;
22502;SDS011;11418;48.118;9.992;2023-07-20T20:03:39;3.20;;;2.15;;
22502;SDS011;11418;48.118;9.992;2023-07-20T20:07:39;3.42;;;1.98;;
22502;SDS011;11418;48.118;9.992;2023-07-20T20:11:40;3.28;;;2.17;;
22502;SDS011;11418;48.118;9.992;2023-07-20T20:15:41;4.18;;;2.05;;
22502;SDS011;11418;48.118;9.992;2023-07-20T20:19:42;4.88;;;1.90;;
22502;SDS011;11418;48.118;9.992;2023-07-20T20:23:43;4.85;;;2.90;;
22502;SDS011;11418;48.118;9.992;2023-07-20T20:27:44;12.75;;;2.40;;
22502;SDS011;11418;48.118;9.992;2023-07-20T20:31:44;4.55;;;2.53;;
22502;SDS011;11418;48.118;9.992;2023-07-20T20:35:48;3.63;;;2.40;;
22502;SDS011;11418;48.118;9.992;2023-07-20T20:39:53;7.05;;;3.17;;
22502;SDS011;11418;48.118;9.992;2023-07-20T20:43:53;7.28;;;2.80;;
22502;SDS011;11418;48.118;9.992;2023-07-20T20:47:54;3.15;;;2.58;;
22502;SDS011;11418;48.118;9.992;2023-07-20T20:52:04;7.88;;;2.80;;
22502;SDS011;11418;48.118;9.992;2023-07-20T20:56:05;5.47;;;2.60;;
22502;SDS011;11418;48.118;9.992;2023-07-20T21:00:06;7.30;;;2.45;;
22502;SDS011;11418;48.118;9.992;2023-07-20T21:04:09;5.15;;;2.55;;
22502;SDS011;11418;48.118;9.992;2023-07-20T21:08:09;4.13;;;2.75;;
22502;SDS011;11418;48.118;9.992;2023-07-20T21:12:10;7.47;;;2.80;;
22502;SDS011;11418;48.118;9.992;2023-07-20T21:16:10;5.28;;;2.90;;
22502;SDS011;11418;48.118;9.992;2023-07-20T21:20:11;6.35;;;3.15;;
22502;SDS011;11418;48.118;9.992;2023-07-20T21:24:11;7.68;;;3.00;;
22502;SDS011;11418;48.118;9.992;2023-07-20T21:28:12;6.95;;;3.08;;
22502;SDS011;11418;48.118;9.992;2023-07-20T21:32:13;4.70;;;3.08;;
22502;SDS011;11418;48.118;9.992;2023-07-20T21:36:13;4.78;;;2.88;;
22502;SDS011;11418;48.118;9.992;2023-07-20T21:40:14;5.22;;;3.00;;
22502;SDS011;11418;48.118;9.992;2023-07-20T21:44:15;3.95;;;2.40;;
22502;SDS011;11418;48.118;9.992;2023-07-20T21:48:15;4.75;;;2.72;;
22502;SDS011;11418;48.118;9.992;2023-07-20T21:52:16;5.55;;;2.92;;
22502;SDS011;11418;48.118;9.992;2023-07-20T21:56:16;5.13;;;2.75;;
22502;SDS011;11418;48.118;9.992;2023-07-20T22:00:17;4.63;;;2.85;;
22502;SDS011;11418;48.118;9.992;2023-07-20T22:04:19;9.27;;;3.28;;
22502;SDS011;11418;48.118;9.992;2023-07-20T22:08:19;5.35;;;3.13;;
22502;SDS011;11418;48.118;9.992;2023-07-20T22:12:20;4.63;;;3.45;;
22502;SDS011;11418;48.118;9.992;2023-07-20T22:16:20;6.93;;;2.63;;
22502;SDS011;11418;48.118;9.992;2023-07-20T22:20:21;4.70;;;2.85;;
22502;SDS011;11418;48.118;9.992;2023-07-20T22:24:22;5.53;;;3.17;;
22502;SDS011;11418;48.118;9.992;2023-07-20T22:28:22;4.45;;;2.92;;
22502;SDS011;11418;48.118;9.992;2023-07-20T22:32:23;4.80;;;3.17;;
22502;SDS011;11418;48.118;9.992;2023-07-20T22:36:23;3.92;;;2.78;;
22502;SDS011;11418;48.118;9.992;2023-07-20T22:40:24;5.07;;;3.13;;
22502;SDS011;11418;48.118;9.992;2023-07-20T22:44:24;5.95;;;2.95;;
22502;SDS011;11418;48.118;9.992;2023-07-20T22:48:25;5.25;;;3.10;;
22502;SDS011;11418;48.118;9.992;2023-07-20T22:52:27;8.18;;;3.38;;
22502;SDS011;11418;48.118;9.992;2023-07-20T22:56:28;3.60;;;2.97;;
22502;SDS011;11418;48.118;9.992;2023-07-20T23:00:28;6.65;;;3.53;;
22502;SDS011;11418;48.118;9.992;2023-07-20T23:04:31;7.03;;;3.55;;
22502;SDS011;11418;48.118;9.992;2023-07-20T23:08:31;5.07;;;3.63;;
22502;SDS011;11418;48.118;9.992;2023-07-20T23:12:33;6.43;;;3.20;;
22502;SDS011;11418;48.118;9.992;2023-07-20T23:16:33;7.38;;;3.60;;
22502;SDS011;11418;48.118;9.992;2023-07-20T23:20:34;6.88;;;3.70;;
22502;SDS011;11418;48.118;9.992;2023-07-20T23:24:34;7.38;;;4.50;;
22502;SDS011;11418;48.118;9.992;2023-07-20T23:28:35;6.35;;;3.75;;
22502;SDS011;11418;48.118;9.992;2023-07-20T23:32:35;8.05;;;3.72;;
22502;SDS011;11418;48.118;9.992;2023-07-20T23:36:36;7.20;;;3.55;;
22502;SDS011;11418;48.118;9.992;2023-07-20T23:40:37;8.07;;;3.75;;
22502;SDS011;11418;48.118;9.992;2023-07-20T23:44:38;8.35;;;4.05;;
22502;SDS011;11418;48.118;9.992;2023-07-20T23:48:40;7.38;;;3.88;;
22502;SDS011;11418;48.118;9.992;2023-07-20T23:52:40;6.30;;;3.28;;
22502;SDS011;11418;48.118;9.992;2023-07-20T23:56:41;6.35;;;3.67;;
